createdAt,value
2023-03-24T06:49:21.878Z,11.70
2023-03-24T06:52:25.227Z,11.80
2023-03-24T06:55:28.011Z,12.10
2023-03-24T06:58:31.200Z,12.30
2023-03-24T07:01:35.306Z,12.30
2023-03-24T07:04:37.838Z,12.20
2023-03-24T07:08:16.792Z,12.20
2023-03-24T07:11:04.052Z,12.10
2023-03-24T07:14:08.724Z,12.20
2023-03-24T07:17:16.579Z,12.10
2023-03-24T07:20:21.447Z,12.20
2023-03-24T07:23:25.943Z,12.00
2023-03-24T07:26:29.180Z,12.10
2023-03-24T07:29:31.310Z,12.10
2023-03-24T07:32:39.220Z,12.10
2023-03-24T07:35:41.743Z,12.20
2023-03-24T07:38:43.800Z,12.20
2023-03-24T07:41:45.679Z,12.30
2023-03-24T07:44:47.847Z,12.30
2023-03-24T07:47:49.861Z,12.30
2023-03-24T07:50:54.103Z,12.30
2023-03-24T07:53:56.091Z,12.30
2023-03-24T07:56:58.283Z,12.30
2023-03-24T08:00:01.830Z,12.20
2023-03-24T08:03:04.498Z,12.20
2023-03-24T08:06:08.393Z,12.20
2023-03-24T08:09:11.547Z,12.00
2023-03-24T08:12:20.446Z,12.20
2023-03-24T08:15:23.238Z,12.20
2023-03-24T08:18:26.008Z,12.30
2023-03-24T08:21:29.992Z,12.20
2023-03-24T08:24:32.290Z,12.20
2023-03-24T08:27:34.401Z,12.40
2023-03-24T08:30:36.318Z,12.60
2023-03-24T08:33:38.514Z,12.70
2023-03-24T08:36:41.754Z,12.90
2023-03-24T08:39:44.986Z,13.00
2023-03-24T08:42:49.747Z,13.10
2023-03-24T08:45:52.139Z,13.40
2023-03-24T08:48:55.375Z,13.60
2023-03-24T08:51:58.882Z,13.80
2023-03-24T08:55:01.118Z,13.80
2023-03-24T08:58:03.096Z,13.80
2023-03-24T09:01:05.521Z,13.80
2023-03-24T09:04:07.754Z,13.90
2023-03-24T09:07:10.926Z,13.80
2023-03-24T09:10:15.067Z,13.50
2023-03-24T09:13:19.264Z,13.40
2023-03-24T09:16:23.525Z,13.40
2023-03-24T09:19:25.633Z,13.40
2023-03-24T09:22:27.578Z,13.50
2023-03-24T09:25:29.446Z,13.60
2023-03-24T09:28:32.220Z,13.70
2023-03-24T09:31:34.789Z,14.00
2023-03-24T09:34:38.391Z,14.50
2023-03-24T09:37:41.113Z,14.70
2023-03-24T09:40:43.761Z,14.80
2023-03-24T09:44:08.104Z,15.40
2023-03-24T09:47:25.249Z,16.20
2023-03-24T09:50:48.812Z,16.10
2023-03-24T09:54:04.093Z,16.60
2023-03-24T09:57:13.645Z,17.90
2023-03-24T10:00:25.981Z,17.40
2023-03-24T10:03:28.512Z,17.30
2023-03-24T10:06:36.772Z,17.20
2023-03-24T10:09:40.235Z,17.10
2023-03-24T10:12:48.787Z,17.10
2023-03-24T10:16:22.934Z,17.20
2023-03-24T10:19:34.691Z,16.90
2023-03-24T10:23:08.017Z,16.50
2023-03-24T10:26:24.096Z,16.00
2023-03-24T10:29:32.840Z,15.80
2023-03-24T10:32:38.574Z,15.70
2023-03-24T10:36:22.125Z,15.90
2023-03-24T10:42:38.893Z,15.80
2023-03-24T10:45:44.798Z,16.00
2023-03-24T10:48:50.193Z,16.10
2023-03-24T10:51:56.683Z,15.60
2023-03-24T10:55:04.335Z,15.60
2023-03-24T10:58:34.505Z,16.10
2023-03-24T11:01:37.983Z,16.40
2023-03-24T11:04:51.437Z,16.80
2023-03-24T11:07:54.647Z,17.00
2023-03-24T11:10:56.920Z,16.80
2023-03-24T11:14:02.434Z,16.40
2023-03-24T11:17:13.283Z,16.30
2023-03-24T11:20:44.193Z,16.20
2023-03-24T11:23:46.544Z,16.70
2023-03-24T11:27:03.290Z,16.40
2023-03-24T11:30:05.852Z,16.10
2023-03-24T11:33:07.729Z,16.40
2023-03-24T11:36:32.953Z,16.20
2023-03-24T11:39:35.397Z,16.20
2023-03-24T11:43:01.051Z,15.70
2023-03-24T11:46:17.097Z,15.70
2023-03-24T11:49:22.319Z,15.90
2023-03-24T11:52:33.531Z,15.80
2023-03-24T11:55:37.114Z,16.40
2023-03-24T11:58:55.444Z,16.90
2023-03-24T12:02:03.267Z,16.80
2023-03-24T12:05:28.133Z,16.90
2023-03-24T12:08:51.684Z,17.00
2023-03-24T12:12:10.792Z,16.70
2023-03-24T12:15:27.926Z,16.60
2023-03-24T12:18:55.978Z,16.70
2023-03-24T12:22:39.434Z,16.50
2023-03-24T12:26:06.947Z,16.20
2023-03-24T12:29:23.894Z,16.10
2023-03-24T12:32:32.263Z,15.80
2023-03-24T12:35:39.893Z,15.70
2023-03-24T12:39:02.076Z,15.40
2023-03-24T12:42:07.190Z,15.30
2023-03-24T12:45:26.566Z,14.30
2023-03-24T12:49:03.286Z,13.50
2023-03-24T12:52:23.764Z,13.10
2023-03-24T12:55:50.543Z,12.80
2023-03-24T12:58:58.593Z,12.50
2023-03-24T13:02:24.085Z,12.10
2023-03-24T13:05:32.576Z,11.90
2023-03-24T13:08:38.266Z,11.70
2023-03-24T13:12:01.254Z,11.60
2023-03-24T13:15:09.603Z,11.50
2023-03-24T13:18:11.452Z,11.50
2023-03-24T13:21:23.428Z,11.70
2023-03-24T13:24:26.229Z,11.70
2023-03-24T13:27:36.219Z,11.70
2023-03-24T13:30:41.345Z,11.60
2023-03-24T13:33:44.956Z,11.80
2023-03-24T13:36:50.567Z,11.70
2023-03-24T13:39:58.322Z,11.40
2023-03-24T13:43:07.824Z,11.40
2023-03-24T13:46:13.671Z,11.40
2023-03-24T13:49:16.505Z,11.50
2023-03-24T13:52:31.044Z,11.80
2023-03-24T13:55:38.346Z,12.20
2023-03-24T13:59:03.230Z,12.00
2023-03-24T14:02:29.079Z,11.90
2023-03-24T14:05:32.535Z,11.90
2023-03-24T14:09:04.533Z,11.60
2023-03-24T14:12:17.631Z,11.50
2023-03-24T14:15:21.439Z,11.60
2023-03-24T14:18:23.179Z,11.50
2023-03-24T14:21:30.681Z,11.60
2023-03-24T14:24:33.066Z,11.60
2023-03-24T14:27:42.539Z,11.80
2023-03-24T14:31:13.321Z,11.80
2023-03-24T14:34:25.403Z,11.90
2023-03-24T14:37:29.083Z,12.20
2023-03-24T14:40:37.840Z,12.30
2023-03-24T14:43:39.520Z,12.20
2023-03-24T14:46:50.361Z,12.50
2023-03-24T14:49:57.139Z,12.50
2023-03-24T14:53:01.046Z,12.60
2023-03-24T14:56:03.903Z,12.50
2023-03-24T14:59:21.973Z,12.50
2023-03-24T15:02:52.233Z,12.40
2023-03-24T15:05:53.956Z,12.60
2023-03-24T15:09:07.388Z,12.70
2023-03-24T15:12:09.284Z,12.60
2023-03-24T15:15:19.513Z,12.80
2023-03-24T15:18:24.296Z,12.90
2023-03-24T15:21:29.755Z,13.10
2023-03-24T15:24:35.229Z,13.40
2023-03-24T15:27:39.528Z,13.40
2023-03-24T15:30:41.243Z,13.30
2023-03-24T15:33:43.872Z,13.40
2023-03-24T15:36:50.531Z,13.50
2023-03-24T15:40:01.876Z,13.60
2023-03-24T15:43:20.565Z,13.60
2023-03-24T15:46:30.732Z,13.80
2023-03-24T15:49:34.701Z,14.10
2023-03-24T15:52:38.324Z,14.20
2023-03-24T15:55:43.398Z,14.20
2023-03-24T15:58:48.086Z,13.70
2023-03-24T16:01:50.345Z,13.60
2023-03-24T16:05:07.754Z,13.50
2023-03-24T16:08:38.850Z,13.20
2023-03-24T16:11:41.862Z,13.30
2023-03-24T16:14:43.558Z,13.20
2023-03-24T16:17:45.773Z,13.20
2023-03-24T16:20:47.826Z,13.40
2023-03-24T16:23:51.936Z,13.40
2023-03-24T16:26:53.606Z,13.40
2023-03-24T16:29:55.841Z,13.20
2023-03-24T16:32:57.545Z,13.10
2023-03-24T16:36:00.567Z,13.20
2023-03-24T16:39:03.184Z,13.30
2023-03-24T16:42:04.977Z,13.30
2023-03-24T16:45:07.194Z,13.40
2023-03-24T16:48:11.574Z,13.40
2023-03-24T16:51:14.937Z,13.40
2023-03-24T16:54:16.658Z,13.20
2023-03-24T16:57:18.301Z,13.10
